Time;durP1;ratioP1;P1;durP2;ratioP2;P2;SDS_P1;SDS_P2;PMS_P1;PMS_P2;Temp;Humidity;BMP_temperature;BMP_pressure;BME280_temperature;BME280_humidity;BME280_pressure;Samples;Min_cycle;Max_cycle;Signal;HPM_P1;HPM_P2
2023/03/17 00:00:09;;;;;;;6.03;3.30;;;;;;;8.00;58.77;99229.69;345736;28;1938;-70
2023/03/17 00:00:21;;;;;;;6.38;3.22;;;;;;;8.03;58.52;99227.91;346014;28;1082;-71
2023/03/17 00:00:34;;;;;;;5.40;3.30;;;;;;;8.02;58.56;99231.41;345977;28;1047;-71
2023/03/17 00:00:47;;;;;;;6.35;3.50;;;;;;;8.03;58.84;99223.63;345879;28;1383;-70
2023/03/17 00:01:02;;;;;;;6.70;3.40;;;;;;;8.04;58.21;99229.63;346166;28;1226;-70
2023/03/17 00:01:15;;;;;;;6.07;3.40;;;;;;;8.04;58.33;99227.03;346129;28;1081;-70
2023/03/17 00:01:27;;;;;;;5.90;3.47;;;;;;;8.04;58.60;99224.44;346248;28;1169;-70
2023/03/17 00:01:39;;;;;;;5.57;3.40;;;;;;;8.03;58.48;99222.75;345728;28;1674;-70
2023/03/17 00:01:53;;;;;;;6.03;3.38;;;;;;;8.04;58.27;99232.22;346283;28;1287;-69
2023/03/17 00:02:07;;;;;;;6.82;3.28;;;;;;;8.04;58.31;99221.88;346097;28;950;-70
2023/03/17 00:02:21;;;;;;;6.88;3.40;;;;;;;8.04;58.31;99224.44;345140;28;1241;-70
2023/03/17 00:02:33;;;;;;;6.70;3.40;;;;;;;8.06;58.80;99227.84;346401;28;1157;-70
2023/03/17 00:02:47;;;;;;;4.53;3.37;;;;;;;8.05;58.84;99228.72;346224;28;1325;-70
2023/03/17 00:03:00;;;;;;;4.45;3.38;;;;;;;8.05;58.33;99220.97;346142;28;930;-70
2023/03/17 00:03:22;;;;;;;6.47;3.33;;;;;;;8.06;58.54;99222.66;346566;28;1057;-70
2023/03/17 00:03:40;;;;;;;7.70;3.40;;;;;;;8.06;58.62;99222.66;346197;28;1788;-71
2023/03/17 00:03:52;;;;;;;7.28;3.75;;;;;;;8.05;58.58;99216.66;345965;28;1290;-71
2023/03/17 00:04:04;;;;;;;7.40;3.95;;;;;;;8.08;59.03;99220.88;345315;28;1879;-70
2023/03/17 00:04:18;;;;;;;6.63;3.80;;;;;;;8.07;58.51;99219.16;345275;28;2001;-71
2023/03/17 00:04:30;;;;;;;5.65;3.75;;;;;;;8.07;59.01;99219.16;345702;28;1517;-70
2023/03/17 00:04:42;;;;;;;5.22;3.63;;;;;;;8.07;58.56;99214.00;346148;28;1383;-70
2023/03/17 00:04:54;;;;;;;5.18;3.53;;;;;;;8.06;58.92;99217.50;344691;28;1108;-70
2023/03/17 00:05:23;;;;;;;6.28;3.60;;;;;;;8.05;58.80;99216.66;346234;28;1286;-71
2023/03/17 00:05:35;;;;;;;6.13;3.50;;;;;;;7.92;58.74;99220.47;345729;28;1735;-70
2023/03/17 00:05:48;;;;;;;5.93;3.40;;;;;;;7.94;58.75;99216.94;347301;28;2107;-70
2023/03/17 00:06:00;;;;;;;5.93;3.50;;;;;;;7.91;59.09;99216.22;347336;28;1185;-70
2023/03/17 00:06:26;;;;;;;5.15;3.58;;;;;;;7.93;58.94;99212.66;347409;28;1141;-70
2023/03/17 00:06:40;;;;;;;4.20;3.40;;;;;;;7.96;58.62;99216.91;345274;28;1993;-69
2023/03/17 00:06:53;;;;;;;4.97;3.30;;;;;;;7.95;58.74;99218.66;346590;28;1368;-70
2023/03/17 00:07:05;;;;;;;6.85;3.47;;;;;;;7.94;58.99;99216.94;346036;28;1291;-70
2023/03/17 00:07:17;;;;;;;6.25;3.45;;;;;;;7.96;58.89;99222.91;346142;28;1309;-70
2023/03/17 00:07:32;;;;;;;6.22;3.40;;;;;;;7.97;58.99;99219.47;347465;28;1079;-71
2023/03/17 00:07:45;;;;;;;5.28;3.30;;;;;;;7.97;58.90;99219.47;346490;28;1722;-71
2023/03/17 00:08:02;;;;;;;5.15;3.40;;;;;;;7.98;59.01;99221.13;345236;28;1732;-71
2023/03/17 00:08:23;;;;;;;4.82;3.40;;;;;;;7.99;58.79;99217.66;344941;28;1241;-71
2023/03/17 00:08:35;;;;;;;5.53;3.35;;;;;;;8.02;58.80;99214.13;345172;28;1262;-71
2023/03/17 00:08:47;;;;;;;5.32;3.30;;;;;;;8.01;58.58;99209.88;345368;28;1375;-70
2023/03/17 00:08:59;;;;;;;5.20;3.30;;;;;;;8.02;58.39;99210.72;345640;28;1285;-71
2023/03/17 00:09:13;;;;;;;5.10;3.40;;;;;;;8.04;58.64;99208.91;344883;28;1281;-71
2023/03/17 00:09:25;;;;;;;5.03;3.40;;;;;;;8.03;58.76;99212.38;345087;28;1039;-69
2023/03/17 00:09:37;;;;;;;4.22;3.30;;;;;;;8.02;58.49;99210.72;345273;28;1300;-70
2023/03/17 00:09:50;;;;;;;6.88;3.42;;;;;;;8.04;58.81;99207.16;345307;28;1418;-71
2023/03/17 00:10:02;;;;;;;7.20;3.50;;;;;;;8.03;59.04;99212.38;344587;28;1043;-70
2023/03/17 00:10:21;;;;;;;5.88;3.65;;;;;;;8.04;59.17;99214.09;344600;28;1211;-70
2023/03/17 00:10:33;;;;;;;5.97;3.85;;;;;;;8.06;59.20;99212.31;345099;28;1679;-71
2023/03/17 00:10:45;;;;;;;5.63;3.70;;;;;;;8.05;59.45;99208.00;346129;28;1270;-71
2023/03/17 00:10:57;;;;;;;4.53;3.45;;;;;;;8.04;59.33;99209.75;345814;28;1670;-71
2023/03/17 00:11:13;;;;;;;4.30;3.30;;;;;;;8.05;58.60;99220.97;344285;28;1209;-71
2023/03/17 00:11:27;;;;;;;6.18;3.17;;;;;;;8.05;58.36;99216.66;344946;28;1055;-70
2023/03/17 00:11:39;;;;;;;6.65;3.22;;;;;;;8.08;58.56;99213.13;344629;28;1164;-71
2023/03/17 00:11:52;;;;;;;5.82;3.22;;;;;;;8.07;58.62;99214.00;345777;28;1318;-69
2023/03/17 00:12:09;;;;;;;4.53;3.30;;;;;;;8.07;58.43;99214.00;346270;28;1236;-70
2023/03/17 00:12:21;;;;;;;4.47;3.55;;;;;;;8.07;58.91;99203.63;344905;28;1462;-71
2023/03/17 00:12:33;;;;;;;4.50;3.60;;;;;;;8.08;58.08;99211.38;346387;28;1049;-71
2023/03/17 00:12:45;;;;;;;5.63;3.72;;;;;;;8.08;58.41;99210.53;346301;28;1272;-71
2023/03/17 00:12:57;;;;;;;6.05;3.55;;;;;;;8.09;58.80;99212.19;347389;28;1248;-71
2023/03/17 00:13:13;;;;;;;6.20;3.42;;;;;;;8.03;59.14;99207.22;347255;28;1158;-71
2023/03/17 00:13:26;;;;;;;5.10;3.25;;;;;;;8.03;59.09;99212.38;347515;28;1070;-71
2023/03/17 00:13:38;;;;;;;5.72;3.28;;;;;;;8.00;58.99;99214.16;347333;28;1179;-70
2023/03/17 00:13:50;;;;;;;5.60;3.33;;;;;;;8.04;58.61;99214.09;346857;28;1212;-70
2023/03/17 00:14:02;;;;;;;5.25;3.33;;;;;;;8.04;59.01;99219.28;346740;28;1599;-70
2023/03/17 00:14:15;;;;;;;5.28;3.50;;;;;;;8.04;58.69;99214.09;347544;28;1081;-70
2023/03/17 00:14:27;;;;;;;5.22;3.40;;;;;;;8.04;58.82;99219.28;346425;28;2031;-70
2023/03/17 00:14:40;;;;;;;5.43;3.40;;;;;;;8.05;59.04;99210.59;347339;28;1128;-70
2023/03/17 00:14:52;;;;;;;4.80;3.35;;;;;;;8.07;58.68;99219.16;347599;28;1281;-69
2023/03/17 00:15:04;;;;;;;4.97;3.60;;;;;;;8.07;59.03;99214.88;346580;28;1082;-70
2023/03/17 00:15:16;;;;;;;5.20;3.80;;;;;;;8.07;58.42;99214.00;345843;28;1053;-70
2023/03/17 00:15:29;;;;;;;5.13;3.70;;;;;;;8.08;58.38;99215.69;345923;28;1287;-70
2023/03/17 00:15:41;;;;;;;5.25;3.47;;;;;;;8.08;58.42;99213.13;346110;28;1071;-71
2023/03/17 00:16:00;;;;;;;5.10;3.42;;;;;;;8.08;58.35;99213.13;344717;28;1772;-71
2023/03/17 00:16:17;;;;;;;4.65;3.20;;;;;;;8.09;58.39;99217.38;344889;28;1647;-70
2023/03/17 00:16:36;;;;;;;4.82;3.28;;;;;;;8.08;57.87;99215.69;345985;28;1837;-70
2023/03/17 00:16:50;;;;;;;4.70;3.25;;;;;;;8.05;58.96;99213.19;346524;28;1313;-70
2023/03/17 00:17:02;;;;;;;4.72;3.45;;;;;;;8.06;58.72;99214.91;345906;28;1616;-70
2023/03/17 00:17:14;;;;;;;5.13;3.60;;;;;;;8.04;58.85;99220.13;344979;28;1049;-70
2023/03/17 00:17:26;;;;;;;5.38;3.78;;;;;;;8.00;59.15;99216.75;344766;28;1112;-70
2023/03/17 00:17:38;;;;;;;5.13;3.60;;;;;;;7.92;58.91;99210.97;344434;28;1735;-70
2023/03/17 00:17:50;;;;;;;4.72;3.50;;;;;;;7.96;58.99;99225.50;345376;28;1115;-70
2023/03/17 00:18:02;;;;;;;4.82;3.60;;;;;;;7.97;58.70;99218.63;346122;28;1019;-70
2023/03/17 00:18:16;;;;;;;5.70;3.42;;;;;;;7.99;58.70;99215.09;346167;28;1187;-70
2023/03/17 00:18:30;;;;;;;5.68;3.25;;;;;;;7.99;58.99;99212.50;345193;28;1788;-70
2023/03/17 00:18:43;;;;;;;5.70;3.22;;;;;;;8.02;58.75;99219.31;345815;28;1168;-70
2023/03/17 00:18:56;;;;;;;5.25;3.30;;;;;;;8.05;59.16;99218.38;344947;28;1094;-72
2023/03/17 00:19:35;;;;;;;4.28;3.25;;;;;;;8.07;59.09;99216.56;344668;28;1110;-71
2023/03/17 00:19:47;;;;;;;4.88;3.35;;;;;;;8.10;58.44;99219.09;342955;28;1871;-70
2023/03/17 00:19:59;;;;;;;5.63;3.40;;;;;;;8.05;58.97;99216.66;345020;28;1075;-70
2023/03/17 00:20:23;;;;;;;5.15;3.38;;;;;;;8.06;58.68;99214.91;345255;28;1191;-70
2023/03/17 00:20:35;;;;;;;7.22;3.50;;;;;;;8.03;58.34;99218.44;345006;28;1328;-73
2023/03/17 00:20:47;;;;;;;6.97;3.38;;;;;;;7.99;58.52;99217.66;345412;28;1646;-71
2023/03/17 00:21:01;;;;;;;6.13;3.30;;;;;;;8.00;58.86;99219.34;346431;28;1202;-72
2023/03/17 00:21:16;;;;;;;5.05;3.50;;;;;;;8.02;58.66;99211.53;346469;28;1145;-70
2023/03/17 00:21:31;;;;;;;4.63;3.40;;;;;;;8.03;58.81;99213.25;347373;28;1060;-69
2023/03/17 00:21:45;;;;;;;4.60;3.30;;;;;;;8.05;58.93;99210.59;347336;28;1795;-70
2023/03/17 00:21:59;;;;;;;4.63;3.35;;;;;;;8.08;58.81;99210.53;347055;28;1061;-70
2023/03/17 00:22:17;;;;;;;4.43;3.30;;;;;;;8.07;58.86;99208.81;347429;28;1022;-71
2023/03/17 00:22:29;;;;;;;4.22;3.30;;;;;;;7.96;59.11;99207.38;347515;28;1054;-71
2023/03/17 00:22:41;;;;;;;4.18;3.25;;;;;;;7.97;59.57;99206.50;347928;28;727;-72
2023/03/17 00:22:56;;;;;;;4.20;3.33;;;;;;;8.00;59.07;99209.00;346715;28;1809;-73
2023/03/17 00:23:15;;;;;;;4.68;3.40;;;;;;;8.03;59.23;99208.09;345853;28;1207;-70
2023/03/17 00:23:27;;;;;;;5.25;3.40;;;;;;;8.04;58.81;99214.09;346038;28;1066;-70
2023/03/17 00:23:39;;;;;;;4.97;3.45;;;;;;;8.06;58.96;99212.31;346156;28;1204;-70
2023/03/17 00:23:51;;;;;;;6.03;3.60;;;;;;;8.04;58.79;99216.69;347272;28;1251;-71
2023/03/17 00:24:05;;;;;;;6.07;3.47;;;;;;;8.05;58.93;99210.59;347317;28;1655;-70
2023/03/17 00:24:17;;;;;;;5.47;3.50;;;;;;;8.02;58.84;99205.53;347154;28;1890;-70
2023/03/17 00:24:29;;;;;;;4.97;3.38;;;;;;;8.02;58.89;99206.38;347533;28;1076;-70
2023/03/17 00:24:41;;;;;;;5.03;3.35;;;;;;;7.97;58.38;99209.09;347642;28;1064;-70
2023/03/17 00:24:53;;;;;;;6.05;3.42;;;;;;;7.96;58.71;99209.13;346254;28;1332;-72
2023/03/17 00:25:29;;;;;;;6.68;3.60;;;;;;;7.90;59.05;99207.56;344774;28;1573;-73
2023/03/17 00:25:42;;;;;;;4.65;3.40;;;;;;;7.88;58.86;99209.34;345893;28;1814;-72
2023/03/17 00:25:56;;;;;;;5.28;3.30;;;;;;;7.87;58.86;99211.97;345164;28;762;-70
2023/03/17 00:26:09;;;;;;;5.85;3.28;;;;;;;7.85;58.96;99213.75;345030;28;1096;-70
2023/03/17 00:26:22;;;;;;;5.35;3.17;;;;;;;7.85;59.02;99211.19;344628;28;1011;-70
2023/03/17 00:26:33;;;;;;;4.85;3.05;;;;;;;7.88;59.25;99206.75;344925;28;1070;-71
2023/03/17 00:26:46;;;;;;;5.32;3.28;;;;;;;7.89;59.26;99216.25;345244;28;1171;-70
2023/03/17 00:26:58;;;;;;;5.35;3.40;;;;;;;7.89;59.22;99210.22;345184;28;1711;-71
2023/03/17 00:27:12;;;;;;;5.03;3.40;;;;;;;7.91;59.16;99209.28;346207;28;1347;-70
2023/03/17 00:27:24;;;;;;;6.13;3.47;;;;;;;7.91;59.17;99211.03;346485;28;1963;-70
2023/03/17 00:27:36;;;;;;;7.00;3.65;;;;;;;7.93;59.23;99207.50;346342;28;1093;-70
2023/03/17 00:27:48;;;;;;;6.57;3.90;;;;;;;7.96;58.96;99207.38;345264;28;1705;-72
2023/03/17 00:28:03;;;;;;;5.95;3.70;;;;;;;7.97;58.83;99209.09;346221;28;1633;-70
2023/03/17 00:28:19;;;;;;;5.88;3.45;;;;;;;7.97;59.58;99206.50;344983;28;1114;-70
2023/03/17 00:28:32;;;;;;;5.90;3.40;;;;;;;8.00;59.19;99213.34;345044;28;1063;-71
2023/03/17 00:28:44;;;;;;;5.30;3.33;;;;;;;8.00;59.43;99209.00;344901;28;1291;-70
2023/03/17 00:28:56;;;;;;;4.50;3.40;;;;;;;8.02;58.97;99213.28;346239;28;1044;-70
2023/03/17 00:29:09;;;;;;;4.40;3.33;;;;;;;7.97;59.45;99211.69;345786;28;2036;-70
2023/03/17 00:29:20;;;;;;;4.53;3.42;;;;;;;7.99;59.19;99212.50;346145;28;1027;-70
2023/03/17 00:29:33;;;;;;;4.53;3.38;;;;;;;8.00;59.23;99214.16;346347;28;1037;-70
2023/03/17 00:29:45;;;;;;;4.75;3.20;;;;;;;7.99;58.88;99209.91;346384;28;1259;-70
2023/03/17 00:29:57;;;;;;;4.75;3.20;;;;;;;8.02;58.82;99210.72;345874;28;1231;-71
2023/03/17 00:30:10;;;;;;;4.40;3.22;;;;;;;8.00;58.57;99209.00;345106;28;1107;-71
2023/03/17 00:30:23;;;;;;;4.43;3.20;;;;;;;7.94;58.61;99211.75;345231;28;1281;-70
2023/03/17 00:30:35;;;;;;;4.72;3.13;;;;;;;7.99;58.77;99206.47;345823;28;1565;-71
2023/03/17 00:30:51;;;;;;;5.53;3.25;;;;;;;8.03;58.82;99212.38;346191;28;1285;-72
2023/03/17 00:31:12;;;;;;;5.97;3.60;;;;;;;7.86;58.54;99211.13;346198;28;1168;-73
2023/03/17 00:31:28;;;;;;;7.10;3.40;;;;;;;7.89;59.36;99218.84;345068;28;1230;-70
2023/03/17 00:31:43;;;;;;;7.65;3.33;;;;;;;7.92;59.34;99210.97;344629;28;2195;-69
2023/03/17 00:31:56;;;;;;;6.63;3.40;;;;;;;7.95;59.25;99216.06;345715;28;1035;-71
2023/03/17 00:32:19;;;;;;;5.30;3.45;;;;;;;7.95;59.09;99210.88;346135;28;1090;-70
2023/03/17 00:32:31;;;;;;;6.22;3.30;;;;;;;7.97;59.29;99210.84;345370;28;1760;-70
2023/03/17 00:32:44;;;;;;;6.30;3.28;;;;;;;8.00;58.63;99214.16;345014;28;1753;-73
2023/03/17 00:32:59;;;;;;;4.88;3.40;;;;;;;8.00;58.86;99211.59;345991;28;1210;-70
2023/03/17 00:33:11;;;;;;;4.90;3.50;;;;;;;8.04;58.89;99216.69;346146;28;1210;-72
2023/03/17 00:33:25;;;;;;;5.53;3.47;;;;;;;8.06;59.02;99222.66;345962;28;1383;-70
2023/03/17 00:33:38;;;;;;;5.72;3.47;;;;;;;8.06;58.71;99212.31;346117;28;1047;-71
2023/03/17 00:33:52;;;;;;;5.30;3.35;;;;;;;8.08;58.64;99220.88;346428;28;1191;-70
2023/03/17 00:34:06;;;;;;;5.88;3.50;;;;;;;8.06;59.34;99207.97;345779;28;1770;-72
2023/03/17 00:34:18;;;;;;;6.10;3.60;;;;;;;8.08;58.93;99213.13;346187;28;1862;-70
2023/03/17 00:34:30;;;;;;;4.95;3.42;;;;;;;8.06;58.73;99217.50;346340;28;1101;-70
2023/03/17 00:34:43;;;;;;;5.40;3.40;;;;;;;8.05;58.55;99211.47;346178;28;1095;-70
2023/03/17 00:34:55;;;;;;;5.22;3.47;;;;;;;8.08;58.87;99215.69;347159;28;1276;-71
2023/03/17 00:35:16;;;;;;;5.25;3.47;;;;;;;8.07;58.88;99219.16;347488;28;1303;-70
2023/03/17 00:35:29;;;;;;;5.25;3.42;;;;;;;8.07;58.67;99209.69;347534;28;1135;-71
2023/03/17 00:35:43;;;;;;;5.72;3.65;;;;;;;8.06;58.81;99217.50;346314;28;1215;-70
2023/03/17 00:35:56;;;;;;;5.43;3.65;;;;;;;8.09;58.94;99213.06;344251;28;1589;-70
2023/03/17 00:36:16;;;;;;;4.95;3.47;;;;;;;8.09;58.66;99217.38;344846;28;4527;-70
2023/03/17 00:36:31;;;;;;;4.80;3.33;;;;;;;8.11;58.63;99219.06;345948;28;1257;-70
2023/03/17 00:36:47;;;;;;;4.78;3.40;;;;;;;8.13;58.79;99221.56;346192;28;1071;-70
2023/03/17 00:37:00;;;;;;;4.95;3.42;;;;;;;8.13;58.49;99216.41;346218;28;1819;-71
2023/03/17 00:37:12;;;;;;;5.57;3.50;;;;;;;8.17;58.67;99215.44;346089;28;1062;-70
2023/03/17 00:37:24;;;;;;;6.50;3.70;;;;;;;8.17;58.77;99215.44;346038;28;1077;-69
2023/03/17 00:37:36;;;;;;;6.30;3.75;;;;;;;8.17;58.66;99225.81;346087;28;1266;-70
2023/03/17 00:37:51;;;;;;;6.20;3.72;;;;;;;8.18;58.48;99217.13;344928;28;1975;-71
2023/03/17 00:38:04;;;;;;;4.80;3.40;;;;;;;8.13;58.34;99218.97;344839;28;1146;-70
2023/03/17 00:38:18;;;;;;;4.38;3.40;;;;;;;8.11;58.99;99210.41;344796;28;1251;-71
2023/03/17 00:38:30;;;;;;;4.80;3.42;;;;;;;8.10;58.59;99213.91;344806;28;1097;-73
2023/03/17 00:38:42;;;;;;;5.15;3.25;;;;;;;8.12;58.96;99212.13;343672;28;1938;-70
2023/03/17 00:38:54;;;;;;;5.28;3.30;;;;;;;8.14;58.58;99218.09;343811;28;1534;-71
2023/03/17 00:39:12;;;;;;;5.53;3.33;;;;;;;8.18;58.36;99211.94;343617;28;1596;-70
2023/03/17 00:39:24;;;;;;;4.43;3.22;;;;;;;8.17;58.44;99216.28;344070;28;821;-71
2023/03/17 00:39:36;;;;;;;4.15;3.10;;;;;;;8.17;58.79;99215.44;344813;28;1027;-71
2023/03/17 00:39:48;;;;;;;4.38;3.20;;;;;;;8.20;58.19;99215.34;344769;28;1574;-71
2023/03/17 00:40:00;;;;;;;4.90;3.28;;;;;;;8.19;58.64;99213.66;344340;28;1650;-70
2023/03/17 00:40:23;;;;;;;5.63;3.30;;;;;;;8.14;58.86;99210.34;344731;28;1059;-71
2023/03/17 00:40:35;;;;;;;5.35;3.28;;;;;;;8.17;58.93;99215.44;344680;28;1200;-70
2023/03/17 00:40:47;;;;;;;4.40;3.20;;;;;;;8.19;58.70;99213.66;344767;28;1587;-70
2023/03/17 00:41:00;;;;;;;4.32;3.13;;;;;;;8.21;58.70;99217.03;344879;28;1695;-73
2023/03/17 00:41:12;;;;;;;5.00;3.20;;;;;;;8.21;58.88;99214.47;346072;28;1711;-71
2023/03/17 00:41:25;;;;;;;5.75;3.45;;;;;;;8.23;58.76;99212.66;346131;28;1222;-71
2023/03/17 00:41:38;;;;;;;6.82;3.60;;;;;;;8.23;58.51;99210.09;345419;28;2047;-71
2023/03/17 00:41:52;;;;;;;6.10;3.38;;;;;;;8.23;58.39;99210.09;345373;28;1361;-70
2023/03/17 00:42:05;;;;;;;6.28;3.53;;;;;;;8.19;58.38;99211.91;345857;28;1720;-70
2023/03/17 00:42:17;;;;;;;5.95;3.50;;;;;;;8.11;58.63;99207.81;346207;28;1030;-70
2023/03/17 00:42:29;;;;;;;6.45;3.53;;;;;;;8.14;58.76;99207.75;345974;28;957;-71
2023/03/17 00:42:42;;;;;;;6.07;3.58;;;;;;;8.15;58.92;99212.06;345857;28;1029;-70
2023/03/17 00:42:54;;;;;;;5.82;3.63;;;;;;;8.16;59.02;99213.72;346291;28;1022;-70
2023/03/17 00:43:07;;;;;;;4.55;3.65;;;;;;;8.14;58.86;99207.75;345822;28;1618;-70
2023/03/17 00:43:19;;;;;;;4.38;3.45;;;;;;;8.17;58.57;99210.25;345296;28;1667;-70
2023/03/17 00:43:31;;;;;;;5.22;3.50;;;;;;;8.11;58.37;99211.28;344827;28;2166;-71
2023/03/17 00:43:43;;;;;;;5.40;3.50;;;;;;;8.15;58.37;99212.91;346136;28;1319;-70
2023/03/17 00:43:56;;;;;;;4.90;3.42;;;;;;;8.17;58.54;99212.84;344583;28;1035;-71
2023/03/17 00:44:08;;;;;;;5.18;3.13;;;;;;;8.20;58.71;99217.94;344413;28;1612;-70
2023/03/17 00:44:20;;;;;;;5.68;3.10;;;;;;;8.18;58.54;99209.34;345975;28;1114;-70
2023/03/17 00:44:33;;;;;;;5.72;3.17;;;;;;;8.20;58.62;99213.59;346004;28;1335;-70
2023/03/17 00:44:46;;;;;;;4.60;3.10;;;;;;;8.21;58.74;99204.09;345826;28;1690;-70
2023/03/17 00:44:58;;;;;;;5.10;3.28;;;;;;;8.20;58.37;99210.16;345045;28;1033;-70
2023/03/17 00:45:10;;;;;;;6.10;3.40;;;;;;;8.21;58.45;99209.28;346236;28;1189;-70
2023/03/17 00:45:23;;;;;;;6.38;3.67;;;;;;;8.23;58.67;99210.09;346296;28;1169;-71
2023/03/17 00:45:36;;;;;;;5.85;3.70;;;;;;;8.24;58.52;99206.59;347548;28;1259;-70
2023/03/17 00:45:49;;;;;;;5.60;3.45;;;;;;;8.24;58.52;99206.59;346194;28;1801;-72
2023/03/17 00:46:10;;;;;;;5.20;3.53;;;;;;;8.27;58.50;99211.69;345082;28;1688;-70
2023/03/17 00:46:34;;;;;;;4.55;3.38;;;;;;;8.30;58.58;99211.56;345833;28;1045;-70
2023/03/17 00:46:47;;;;;;;5.50;3.22;;;;;;;8.33;58.41;99205.44;345978;28;1462;-71
2023/03/17 00:47:00;;;;;;;5.22;3.17;;;;;;;8.33;58.48;99206.31;346061;28;1379;-71
2023/03/17 00:47:12;;;;;;;4.78;3.35;;;;;;;8.34;57.77;99212.34;346421;28;1042;-71
2023/03/17 00:47:24;;;;;;;4.72;3.20;;;;;;;8.32;58.18;99204.59;346273;28;1428;-71
2023/03/17 00:47:37;;;;;;;4.88;3.30;;;;;;;8.33;58.49;99210.63;347335;28;1070;-71
2023/03/17 00:47:50;;;;;;;5.32;3.38;;;;;;;8.34;58.21;99208.00;346463;28;1294;-70
2023/03/17 00:48:04;;;;;;;5.40;3.15;;;;;;;8.35;58.07;99209.69;346448;28;1075;-70
2023/03/17 00:48:19;;;;;;;4.72;3.00;;;;;;;8.36;58.09;99206.19;346127;28;1161;-70
2023/03/17 00:48:31;;;;;;;4.65;3.25;;;;;;;8.36;58.41;99205.38;345610;28;1576;-71
2023/03/17 00:48:44;;;;;;;5.82;3.30;;;;;;;8.37;58.15;99207.03;345118;28;1806;-71
2023/03/17 00:48:56;;;;;;;6.20;3.30;;;;;;;8.38;57.81;99207.00;343926;28;1291;-70
2023/03/17 00:49:20;;;;;;;5.20;3.28;;;;;;;8.36;57.65;99206.19;342551;28;1910;-70
2023/03/17 00:49:34;;;;;;;4.45;3.33;;;;;;;8.37;57.55;99197.56;342865;28;1676;-71
2023/03/17 00:49:47;;;;;;;5.28;3.10;;;;;;;8.39;57.59;99205.25;343233;28;1819;-71
2023/03/17 00:49:59;;;;;;;5.10;3.10;;;;;;;8.39;57.83;99203.53;342970;28;1661;-70
2023/03/17 00:50:14;;;;;;;4.82;3.10;;;;;;;8.36;57.88;99203.63;344916;28;1011;-70
2023/03/17 00:50:27;;;;;;;5.53;3.47;;;;;;;8.33;57.69;99205.44;343151;28;1864;-70
2023/03/17 00:50:41;;;;;;;5.72;3.42;;;;;;;8.35;57.95;99204.53;342910;28;1829;-70
2023/03/17 00:50:53;;;;;;;4.50;3.05;;;;;;;8.36;58.14;99205.38;344904;28;1262;-70
2023/03/17 00:51:05;;;;;;;3.95;2.95;;;;;;;8.37;58.10;99207.91;345068;28;1318;-71
2023/03/17 00:51:17;;;;;;;4.35;3.10;;;;;;;8.36;57.99;99203.63;344941;28;1167;-71
2023/03/17 00:51:32;;;;;;;5.63;3.33;;;;;;;8.38;58.01;99201.81;345079;28;1125;-71
2023/03/17 00:51:45;;;;;;;5.88;3.17;;;;;;;8.42;57.89;99204.38;344130;28;1624;-71
2023/03/17 00:52:00;;;;;;;5.40;3.17;;;;;;;8.36;57.77;99201.03;346103;28;1095;-71
2023/03/17 00:52:12;;;;;;;5.38;3.28;;;;;;;8.33;57.70;99201.13;345719;28;1833;-71
2023/03/17 00:52:25;;;;;;;4.78;3.15;;;;;;;8.36;57.84;99198.44;345213;28;1292;-70
2023/03/17 00:52:37;;;;;;;4.30;3.00;;;;;;;8.38;57.83;99204.41;345472;28;1002;-73
2023/03/17 00:52:51;;;;;;;4.82;3.10;;;;;;;8.39;57.72;99205.25;345921;28;1704;-74
2023/03/17 00:53:09;;;;;;;4.60;3.20;;;;;;;8.42;57.73;99204.38;346352;28;1046;-73
2023/03/17 00:53:21;;;;;;;4.70;3.28;;;;;;;8.42;57.72;99197.44;345083;28;1280;-70
2023/03/17 00:53:33;;;;;;;5.40;3.53;;;;;;;8.43;57.68;99195.69;345105;28;1059;-70
2023/03/17 00:53:45;;;;;;;5.00;3.30;;;;;;;8.43;57.83;99195.69;345291;28;1299;-71
2023/03/17 00:53:57;;;;;;;5.43;2.97;;;;;;;8.45;57.78;99199.06;346691;28;774;-72
2023/03/17 00:54:10;;;;;;;4.63;2.88;;;;;;;8.47;57.84;99202.47;346253;28;1103;-71
2023/03/17 00:54:22;;;;;;;4.35;3.17;;;;;;;8.48;57.71;99199.84;346400;28;1308;-70
2023/03/17 00:54:34;;;;;;;3.95;3.10;;;;;;;8.42;57.71;99194.00;346399;28;1199;-71
2023/03/17 00:54:46;;;;;;;4.30;3.10;;;;;;;8.42;58.17;99194.00;346337;28;1303;-71
2023/03/17 00:54:58;;;;;;;4.25;3.03;;;;;;;8.43;57.96;99200.88;345275;28;1631;-71
2023/03/17 00:55:11;;;;;;;4.03;3.05;;;;;;;8.47;57.66;99197.28;346094;28;1420;-70
2023/03/17 00:55:25;;;;;;;4.50;3.30;;;;;;;8.48;57.80;99197.25;346460;28;1247;-70
2023/03/17 00:55:37;;;;;;;5.05;3.60;;;;;;;8.44;57.57;99192.22;346534;28;1035;-70
2023/03/17 00:55:49;;;;;;;4.47;3.15;;;;;;;8.36;57.32;99201.03;345864;28;1523;-72
2023/03/17 00:56:01;;;;;;;4.85;3.08;;;;;;;8.22;57.03;99192.84;345595;28;1899;-70
2023/03/17 00:56:19;;;;;;;5.53;3.17;;;;;;;8.15;58.20;99196.53;346237;28;1587;-70
2023/03/17 00:56:31;;;;;;;4.95;3.25;;;;;;;8.20;57.84;99199.81;346340;28;1221;-70
2023/03/17 00:56:44;;;;;;;4.07;3.10;;;;;;;8.22;57.97;99192.00;346315;28;1255;-73
2023/03/17 00:56:57;;;;;;;4.18;3.10;;;;;;;8.26;57.50;99197.03;346228;28;1051;-70
2023/03/17 00:57:09;;;;;;;4.85;3.25;;;;;;;8.29;57.38;99194.34;345074;28;1677;-70
2023/03/17 00:57:22;;;;;;;5.60;3.30;;;;;;;8.30;56.96;99192.59;346269;28;1327;-72
2023/03/17 00:57:37;;;;;;;4.97;3.30;;;;;;;8.33;56.97;99201.13;346487;28;1143;-71
2023/03/17 00:57:49;;;;;;;4.53;3.05;;;;;;;8.37;57.18;99192.38;344738;28;1360;-70
2023/03/17 00:58:09;;;;;;;4.68;3.13;;;;;;;8.38;56.89;99194.06;345136;28;1312;-70
2023/03/17 00:58:25;;;;;;;4.10;3.00;;;;;;;8.38;56.83;99188.88;344139;28;1704;-71
2023/03/17 00:58:38;;;;;;;5.30;3.10;;;;;;;8.28;56.83;99197.81;344846;28;1274;-72
2023/03/17 00:58:51;;;;;;;5.40;3.08;;;;;;;8.29;57.65;99193.47;345938;28;1304;-71
2023/03/17 00:59:04;;;;;;;5.05;3.20;;;;;;;8.33;57.55;99192.50;343693;28;1022;-70
2023/03/17 00:59:25;;;;;;;5.75;3.25;;;;;;;8.31;57.45;99189.09;344325;28;1814;-71
2023/03/17 00:59:41;;;;;;;5.47;3.45;;;;;;;8.32;57.32;99185.63;344937;28;1099;-71
2023/03/17 00:59:53;;;;;;;6.28;3.80;;;;;;;8.20;57.68;99187.69;345643;28;1493;-71
2023/03/17 01:00:16;;;;;;;5.70;3.70;;;;;;;8.19;58.47;99183.44;344994;28;1050;-71
2023/03/17 01:00:28;;;;;;;5.25;3.58;;;;;;;8.22;58.21;99187.66;345218;28;1053;-70
2023/03/17 01:00:41;;;;;;;5.45;3.50;;;;;;;8.22;58.52;99192.84;345105;28;1015;-71
2023/03/17 01:00:54;;;;;;;5.32;3.42;;;;;;;8.15;58.85;99196.53;345076;28;1617;-70
2023/03/17 01:01:07;;;;;;;5.13;3.40;;;;;;;8.19;58.76;99187.78;346940;28;1034;-70
2023/03/17 01:01:19;;;;;;;5.55;3.60;;;;;;;8.23;58.53;99188.50;346562;28;1640;-71
2023/03/17 01:01:31;;;;;;;5.82;3.60;;;;;;;8.14;58.90;99194.81;347521;28;1717;-70
2023/03/17 01:01:43;;;;;;;5.70;3.60;;;;;;;8.18;59.15;99186.06;345843;28;1767;-71
2023/03/17 01:01:55;;;;;;;5.57;3.40;;;;;;;8.17;58.85;99190.38;345371;28;1834;-70
2023/03/17 01:02:11;;;;;;;5.03;3.25;;;;;;;8.16;58.80;99193.03;345601;28;1189;-72
2023/03/17 01:02:24;;;;;;;4.35;3.05;;;;;;;8.20;58.93;99194.63;345012;28;1758;-72
2023/03/17 01:02:36;;;;;;;4.30;3.22;;;;;;;8.22;58.90;99186.81;345767;28;1661;-70
2023/03/17 01:02:49;;;;;;;4.97;3.33;;;;;;;8.22;58.86;99187.66;344816;28;1279;-70
2023/03/17 01:03:01;;;;;;;5.68;3.55;;;;;;;8.17;58.92;99184.38;344914;28;1690;-70
2023/03/17 01:03:14;;;;;;;5.28;3.42;;;;;;;8.21;58.88;99196.34;344984;28;1059;-70
2023/03/17 01:03:27;;;;;;;6.05;3.40;;;;;;;8.09;59.47;99196.66;344882;28;1050;-70
2023/03/17 01:03:40;;;;;;;6.10;3.60;;;;;;;8.05;59.27;99195.06;344404;28;2039;-71
2023/03/17 01:03:52;;;;;;;6.05;3.70;;;;;;;8.06;59.55;99189.00;346443;28;1252;-69
2023/03/17 01:04:04;;;;;;;5.10;3.50;;;;;;;8.02;59.83;99195.19;346341;28;1164;-70
2023/03/17 01:04:16;;;;;;;4.63;3.35;;;;;;;8.01;59.68;99191.75;345566;28;1168;-70
2023/03/17 01:04:28;;;;;;;5.32;3.50;;;;;;;8.06;59.58;99195.03;344942;28;1662;-72
2023/03/17 01:04:43;;;;;;;6.22;3.63;;;;;;;8.09;59.54;99194.09;346184;28;1655;-70
2023/03/17 01:05:01;;;;;;;5.90;3.57;;;;;;;8.11;59.34;99197.47;345205;28;1042;-70
2023/03/17 01:05:18;;;;;;;5.88;3.63;;;;;;;8.09;59.28;99196.66;346261;28;1187;-70
2023/03/17 01:05:30;;;;;;;5.75;3.80;;;;;;;8.01;59.17;99189.16;346551;28;1171;-70
2023/03/17 01:05:42;;;;;;;5.38;3.70;;;;;;;8.02;59.26;99190.84;346150;28;1445;-71
2023/03/17 01:05:58;;;;;;;6.53;3.67;;;;;;;8.04;59.64;99191.63;345279;28;1208;-70
2023/03/17 01:06:12;;;;;;;6.32;3.63;;;;;;;8.04;60.08;99190.81;344926;28;2303;-72
2023/03/17 01:06:27;;;;;;;5.15;3.60;;;;;;;8.05;60.38;99195.06;346103;28;1211;-70
2023/03/17 01:06:40;;;;;;;5.70;3.65;;;;;;;8.03;60.34;99192.56;345639;28;2141;-71
2023/03/17 01:06:53;;;;;;;5.10;3.35;;;;;;;8.05;59.71;99190.75;345469;28;1708;-73
2023/03/17 01:07:09;;;;;;;4.30;3.30;;;;;;;8.00;59.74;99192.63;346459;28;1633;-71
2023/03/17 01:07:23;;;;;;;4.53;3.50;;;;;;;7.98;60.22;99195.25;346525;28;1561;-72